Time;durP1;ratioP1;P1;durP2;ratioP2;P2;SDS_P1;SDS_P2;PMS_P1;PMS_P2;Temp;Humidity;BMP_temperature;BMP_pressure;BME280_temperature;BME280_humidity;BME280_pressure;Samples;Min_cycle;Max_cycle;Signal;HPM_P1;HPM_P2
2022/10/10 00:02:12;;;;;;;10.23;4.82;;;;;;;11.81;72.72;99866.56;4944036;28;20047;-91
2022/10/10 00:04:52;;;;;;;16.70;5.00;;;;;;;12.00;73.15;99900.13;4951103;28;20038;-92
2022/10/10 00:07:19;;;;;;;8.95;5.22;;;;;;;11.40;73.19;99823.63;4967762;28;20444;-93
2022/10/10 00:09:46;;;;;;;10.60;4.63;;;;;;;11.25;72.74;99832.94;4959125;28;20039;-93
2022/10/10 00:12:16;;;;;;;10.27;4.68;;;;;;;11.44;73.23;99847.34;4942451;28;20050;-92
2022/10/10 00:14:42;;;;;;;9.93;4.60;;;;;;;11.48;72.83;99853.81;4936646;28;20061;-90
2022/10/10 00:17:08;;;;;;;7.07;4.40;;;;;;;11.41;72.40;99845.19;4963475;28;20049;-90
2022/10/10 00:19:37;;;;;;;11.10;4.60;;;;;;;11.35;73.00;99848.34;4957791;28;20049;-90
2022/10/10 00:22:13;;;;;;;13.65;4.70;;;;;;;11.67;73.08;99896.69;4977467;28;20035;-89
2022/10/10 00:24:40;;;;;;;9.90;4.77;;;;;;;11.58;72.49;99884.84;4978145;28;20034;-91
2022/10/10 00:27:30;;;;;;;7.85;4.25;;;;;;;11.85;72.50;99909.47;4952890;28;20520;-93
2022/10/10 00:29:57;;;;;;;7.50;4.30;;;;;;;11.10;71.67;99793.03;4957897;28;20074;-94
2022/10/10 00:32:23;;;;;;;9.70;4.18;;;;;;;11.64;72.03;99884.44;4933599;29;20035;-91
2022/10/10 00:35:04;;;;;;;14.77;4.97;;;;;;;11.27;72.20;99830.72;4940576;28;20030;-91
2022/10/10 00:37:30;;;;;;;9.90;4.40;;;;;;;11.41;72.13;99860.81;4970939;28;20078;-91
2022/10/10 00:39:56;;;;;;;6.78;4.45;;;;;;;11.53;72.23;99877.56;4978579;28;20045;-91
2022/10/10 00:42:24;;;;;;;9.88;4.07;;;;;;;11.60;72.45;99905.34;4967312;28;20074;-91
2022/10/10 00:45:20;;;;;;;12.32;4.68;;;;;;;11.87;72.38;99936.59;4969934;28;20042;-93
2022/10/10 00:48:18;;;;;;;12.02;4.75;;;;;;;11.65;72.23;99907.13;4935987;29;20421;-91
2022/10/10 00:51:10;;;;;;;17.77;4.95;;;;;;;11.46;72.00;99877.97;4918880;29;20051;-91
2022/10/10 00:53:41;;;;;;;8.80;4.50;;;;;;;11.35;72.02;99854.63;4910242;29;20044;-91
2022/10/10 00:56:09;;;;;;;13.98;4.95;;;;;;;11.36;72.07;99860.94;4889640;29;20064;-91
2022/10/10 01:01:30;;;;;;;11.35;4.40;;;;;;;11.52;71.65;99876.75;4934482;29;20573;-90
2022/10/10 01:04:01;;;;;;;12.23;5.25;;;;;;;11.49;71.94;99860.94;5005750;22;20591;-90
2022/10/10 01:06:28;;;;;;;14.85;4.93;;;;;;;11.64;71.17;99881.69;4959927;28;20444;-92
2022/10/10 01:08:56;;;;;;;9.43;4.68;;;;;;;11.61;71.41;99874.09;4953809;28;20034;-91
2022/10/10 01:11:47;;;;;;;11.15;4.43;;;;;;;11.56;71.37;99879.69;4983394;28;20034;-90
2022/10/10 01:14:16;;;;;;;9.27;4.78;;;;;;;11.95;71.85;99949.53;4967001;28;20039;-91
2022/10/10 01:33:02;;;;;;;10.85;4.40;;;;;;;11.49;72.05;99926.63;5011077;28;20034;-91
2022/10/10 01:36:14;;;;;;;13.20;4.43;;;;;;;11.70;71.65;99983.75;4995415;28;20525;-92
2022/10/10 01:39:18;;;;;;;7.53;4.53;;;;;;;11.22;72.16;99908.25;4983398;28;20121;-92
2022/10/10 01:42:31;;;;;;;10.30;4.50;;;;;;;11.83;72.03;99977.44;4998568;28;20503;-93
2022/10/10 01:44:58;;;;;;;12.85;4.90;;;;;;;11.87;71.42;99994.91;4983723;28;20038;-92
2022/10/10 01:48:05;;;;;;;12.85;4.75;;;;;;;11.87;71.13;99988.63;4993787;28;20052;-91
2022/10/10 01:53:59;;;;;;;20.33;4.72;;;;;;;11.86;71.10;99996.06;4991638;28;20457;-94
2022/10/10 01:56:33;;;;;;;;;;;;;;;11.84;70.99;100011.13;4899117;29;20142;-91
2022/10/10 01:58:59;;;;;;;8.82;4.63;;;;;;;11.90;71.04;100009.94;4967562;28;19930;-92
2022/10/10 02:02:04;;;;;;;8.98;4.93;;;;;;;11.33;70.79;99939.00;4943983;28;20043;-90
2022/10/10 02:08:32;;;;;;;11.32;4.20;;;;;;;11.87;68.96;100035.22;4970074;28;20077;-92
2022/10/10 02:11:03;;;;;;;6.38;3.80;;;;;;;11.82;69.66;100027.88;4946057;28;20102;-93
2022/10/10 02:13:52;;;;;;;9.43;3.50;;;;;;;11.18;68.29;99933.78;4944185;28;20046;-91
2022/10/10 02:16:36;;;;;;;9.55;3.65;;;;;;;11.43;68.37;99982.59;4967584;28;20042;-92
2022/10/10 02:19:07;;;;;;;15.13;3.80;;;;;;;11.27;67.84;99975.78;4963985;28;20038;-93
2022/10/10 02:21:42;;;;;;;5.63;3.53;;;;;;;11.65;67.71;100028.44;4961173;28;20496;-91
2022/10/10 02:24:11;;;;;;;13.13;3.65;;;;;;;11.24;68.13;99968.16;4977269;28;20050;-92
2022/10/10 02:26:42;;;;;;;8.50;3.53;;;;;;;11.38;68.09;99993.63;4962018;28;20065;-91
2022/10/10 02:29:25;;;;;;;11.85;3.97;;;;;;;11.02;68.65;99942.25;4951367;28;20038;-93
2022/10/10 02:32:01;;;;;;;8.23;3.70;;;;;;;11.40;68.98;100024.25;5017282;23;20063;-92
2022/10/10 02:34:47;;;;;;;8.52;3.90;;;;;;;11.41;69.45;100031.34;4981347;28;20065;-92
2022/10/10 02:40:00;;;;;;;11.43;4.20;;;;;;;11.33;70.33;100018.38;5106295;23;20080;-94
2022/10/10 02:42:52;;;;;;;13.97;4.00;;;;;;;11.60;69.89;100060.63;5425008;22;20288;31
2022/10/10 02:45:45;;;;;;;11.35;4.63;;;;;;;11.63;69.48;100063.56;4999692;23;20047;-92
2022/10/10 02:48:11;;;;;;;9.77;4.10;;;;;;;11.42;68.03;100022.06;5006925;28;20027;-92
2022/10/10 02:50:37;;;;;;;8.55;3.90;;;;;;;11.03;67.72;99965.00;5007089;28;20064;-91
2022/10/10 02:53:07;;;;;;;11.40;3.77;;;;;;;11.26;68.39;99991.41;5007336;28;20045;-91
2022/10/10 02:55:33;;;;;;;8.60;3.88;;;;;;;11.39;67.61;100021.81;5005724;28;20029;-91
2022/10/10 03:02:25;;;;;;;7.90;3.50;;;;;;;11.40;67.90;100021.53;5040123;28;20170;-92
2022/10/10 03:04:53;;;;;;;9.33;4.13;;;;;;;11.51;68.06;100042.13;4988012;28;20065;-91
2022/10/10 03:07:19;;;;;;;8.60;3.97;;;;;;;11.68;67.43;100082.63;5025857;28;20038;-89
2022/10/10 03:09:46;;;;;;;10.63;3.67;;;;;;;11.44;67.84;100054.59;5018583;23;20058;-90
2022/10/10 03:12:12;;;;;;;12.38;3.90;;;;;;;11.14;67.53;100002.00;5022025;28;20038;-90
2022/10/10 03:15:38;;;;;;;9.77;3.90;;;;;;;11.55;67.22;100097.09;5003151;28;20144;-91
2022/10/10 03:18:04;;;;;;;21.45;5.13;;;;;;;11.49;67.19;100088.19;4983704;28;20116;-91
2022/10/10 03:20:31;;;;;;;6.93;3.63;;;;;;;11.00;67.13;100029.31;4980205;28;20049;-92
2022/10/10 03:22:58;;;;;;;6.47;3.47;;;;;;;10.84;67.01;100011.53;4984911;28;20050;-93
2022/10/10 03:25:27;;;;;;;10.85;3.63;;;;;;;10.77;67.13;100002.88;5002363;23;20108;-91
2022/10/10 03:31:25;;;;;;;14.82;3.72;;;;;;;10.73;66.73;100002.66;5006374;23;20053;-93
2022/10/10 03:33:54;;;;;;;9.32;3.70;;;;;;;11.29;66.95;100107.66;5014935;28;20403;-91
2022/10/10 03:36:21;;;;;;;6.35;3.63;;;;;;;11.19;67.06;100075.81;4982699;28;20038;-92
2022/10/10 03:38:47;;;;;;;13.50;3.53;;;;;;;10.72;67.19;100016.63;4999081;28;20046;-91
2022/10/10 03:41:29;;;;;;;8.32;3.83;;;;;;;10.92;67.52;100046.38;4979419;28;20094;-91
2022/10/10 03:44:23;;;;;;;13.98;4.05;;;;;;;11.31;67.94;100118.31;4979296;28;20137;-93
2022/10/10 03:47:17;;;;;;;14.95;4.05;;;;;;;11.35;66.98;100117.41;4982417;28;20049;-94
2022/10/10 03:49:58;;;;;;;10.25;4.22;;;;;;;10.87;67.64;100064.81;4995590;28;20050;-93
2022/10/10 03:52:49;;;;;;;6.85;3.92;;;;;;;11.24;67.93;100124.97;4980197;28;20048;-92
2022/10/10 03:55:16;;;;;;;23.35;4.50;;;;;;;11.04;68.43;100093.28;4963962;28;20105;-93
2022/10/10 03:58:08;;;;;;;14.55;3.90;;;;;;;11.25;67.75;100136.75;4958481;28;20045;-93
2022/10/10 04:01:03;;;;;;;14.20;4.13;;;;;;;11.19;68.11;100141.50;4984497;28;20057;-93
2022/10/10 04:03:52;;;;;;;7.13;4.07;;;;;;;10.89;67.69;100098.97;4998710;28;20042;-93
2022/10/10 04:06:19;;;;;;;13.05;4.10;;;;;;;10.56;67.92;100041.47;4966445;28;20042;-90
2022/10/10 04:08:45;;;;;;;10.60;3.70;;;;;;;10.80;67.69;100087.06;4998354;23;20049;-92
2022/10/10 04:11:11;;;;;;;11.82;4.45;;;;;;;10.82;68.15;100093.84;4998813;28;20135;-91
2022/10/10 04:13:39;;;;;;;20.80;5.07;;;;;;;10.45;68.23;100037.22;5005674;28;20130;-92
2022/10/10 04:16:14;;;;;;;13.02;4.32;;;;;;;10.61;68.03;100078.03;5005735;28;20288;-92
2022/10/10 04:18:40;;;;;;;13.45;4.03;;;;;;;11.15;67.54;100165.06;5007895;28;20041;-91
2022/10/10 04:24:13;;;;;;;6.78;3.67;;;;;;;10.92;67.69;100138.59;5295706;23;20053;-91
2022/10/10 04:26:40;;;;;;;8.82;3.90;;;;;;;10.98;68.64;100156.56;4983795;28;20132;-91
2022/10/10 04:29:06;;;;;;;20.53;7.50;;;;;;;10.82;68.13;100121.22;4992456;28;20060;-88
2022/10/10 04:32:15;;;;;;;8.90;4.15;;;;;;;11.24;67.56;100187.13;4985087;28;20750;-91
2022/10/10 04:34:41;;;;;;;10.73;3.65;;;;;;;10.93;67.78;100132.84;4984705;28;20052;-88
2022/10/10 04:37:07;;;;;;;12.02;4.60;;;;;;;10.98;67.18;100130.03;5015484;28;20064;-89
2022/10/10 04:39:37;;;;;;;8.10;3.40;;;;;;;11.27;66.06;100192.81;4999860;28;20037;-89
2022/10/10 04:42:03;;;;;;;11.57;3.90;;;;;;;11.24;65.55;100196.16;4999458;28;20060;-85
2022/10/10 04:44:54;;;;;;;19.35;3.78;;;;;;;11.11;65.51;100187.84;5007459;28;20093;-86
2022/10/10 04:47:20;;;;;;;11.80;3.85;;;;;;;10.98;65.63;100170.25;4984349;28;20132;-87
2022/10/10 04:49:47;;;;;;;13.97;4.07;;;;;;;10.79;65.97;100148.34;5019015;28;20033;-87
2022/10/10 04:52:13;;;;;;;12.18;4.40;;;;;;;10.84;66.45;100152.94;5025752;28;20314;-86
2022/10/10 04:54:39;;;;;;;9.98;3.78;;;;;;;10.87;65.87;100166.84;4984749;28;20515;-89
2022/10/10 04:57:15;;;;;;;15.30;3.75;;;;;;;11.03;64.98;100212.03;5016612;28;20045;-87
2022/10/10 04:59:47;;;;;;;21.48;4.00;;;;;;;10.99;65.02;100202.81;4999712;28;20048;-86
2022/10/10 05:02:13;;;;;;;17.02;3.47;;;;;;;11.07;65.18;100219.66;4997882;28;20108;-88
2022/10/10 05:04:42;;;;;;;20.73;3.92;;;;;;;10.74;64.80;100173.03;5015206;28;20042;-86
2022/10/10 05:07:12;;;;;;;16.00;4.05;;;;;;;10.55;64.38;100142.91;5033426;28;20041;-87
2022/10/10 05:09:38;;;;;;;14.60;3.70;;;;;;;11.03;64.36;100228.47;4998465;28;20127;-87
2022/10/10 05:12:07;;;;;;;13.93;3.80;;;;;;;11.07;64.44;100219.66;5032134;28;20037;-90
2022/10/10 05:14:42;;;;;;;11.20;3.90;;;;;;;10.84;65.29;100194.78;5009640;28;20038;-87
2022/10/10 05:17:24;;;;;;;13.82;4.43;;;;;;;10.54;64.91;100147.56;5024930;28;20045;-87
2022/10/10 05:19:52;;;;;;;12.63;4.05;;;;;;;10.64;65.13;100175.91;5032779;28;20067;-87
2022/10/10 05:22:44;;;;;;;13.73;3.92;;;;;;;10.92;65.51;100243.34;5014296;28;20033;-93
2022/10/10 05:25:10;;;;;;;12.05;3.95;;;;;;;10.70;65.80;100202.06;5015253;28;20065;-86
2022/10/10 05:27:40;;;;;;;7.93;3.90;;;;;;;10.71;65.90;100204.50;5033330;28;20040;-87
2022/10/10 05:30:06;;;;;;;11.40;4.20;;;;;;;10.95;66.21;100239.22;5000576;28;20042;-91
2022/10/10 05:32:41;;;;;;;14.50;4.68;;;;;;;10.67;66.62;100192.53;5005846;28;20130;-86
2022/10/10 05:35:57;;;;;;;15.82;4.63;;;;;;;11.11;66.81;100251.59;4984718;28;20042;-92
2022/10/10 05:38:23;;;;;;;11.75;4.68;;;;;;;11.13;67.05;100251.34;5000652;28;20046;-87
2022/10/10 05:40:50;;;;;;;9.25;4.57;;;;;;;10.71;66.49;100187.28;4999073;28;20048;-87
2022/10/10 05:43:44;;;;;;;14.52;4.25;;;;;;;11.06;66.32;100251.69;5015069;28;20124;-88
2022/10/10 05:46:10;;;;;;;15.70;4.88;;;;;;;10.89;67.04;100230.25;5028421;28;20041;-88
2022/10/10 05:48:39;;;;;;;21.50;5.70;;;;;;;10.90;67.07;100226.44;5015533;28;20029;-87
2022/10/10 05:51:08;;;;;;;20.77;5.00;;;;;;;10.73;66.65;100198.75;5014538;28;20132;-87
2022/10/10 05:53:34;;;;;;;19.48;5.32;;;;;;;10.79;66.90;100220.28;5014674;28;20033;-89
2022/10/10 05:56:19;;;;;;;15.05;5.13;;;;;;;10.96;66.97;100238.94;4982252;28;20422;-86
2022/10/10 05:58:45;;;;;;;11.88;5.70;;;;;;;10.66;67.06;100207.31;4980626;28;20080;-87
2022/10/10 06:01:11;;;;;;;18.75;6.53;;;;;;;10.66;67.27;100211.94;5030910;28;20162;-89
2022/10/10 06:04:29;;;;;;;15.80;6.50;;;;;;;10.91;67.72;100274.56;5017628;28;20139;-92
2022/10/10 06:06:58;;;;;;;34.42;5.97;;;;;;;10.41;67.64;100189.28;5005679;28;20041;-87
2022/10/10 06:09:24;;;;;;;19.55;5.18;;;;;;;10.96;67.71;100277.25;4999221;28;20494;-83
2022/10/10 06:11:51;;;;;;;14.48;6.30;;;;;;;10.92;67.41;100261.69;5033340;28;20045;-86
2022/10/10 06:14:17;;;;;;;18.02;5.93;;;;;;;10.90;66.98;100248.31;4981482;28;20414;-85
2022/10/10 06:16:44;;;;;;;18.02;5.45;;;;;;;10.80;66.49;100232.84;5016405;28;20140;-85
2022/10/10 06:19:10;;;;;;;17.58;5.72;;;;;;;10.94;66.57;100257.56;5015147;28;20410;-87
2022/10/10 06:21:36;;;;;;;15.20;5.40;;;;;;;10.94;66.15;100254.84;5030879;28;20034;-86
2022/10/10 06:24:04;;;;;;;12.00;5.20;;;;;;;10.86;66.51;100262.84;5024688;28;20209;-87
2022/10/10 06:26:32;;;;;;;16.75;5.43;;;;;;;10.91;66.10;100271.81;5012521;28;20034;-93
2022/10/10 06:28:58;;;;;;;18.85;5.82;;;;;;;10.98;66.63;100271.47;5015294;28;20499;-86
2022/10/10 06:31:25;;;;;;;17.08;5.25;;;;;;;10.97;65.79;100267.13;5033214;28;20067;-86
2022/10/10 06:33:52;;;;;;;14.77;4.38;;;;;;;10.91;64.94;100260.06;5003206;28;20033;-86
2022/10/10 06:36:18;;;;;;;23.77;5.18;;;;;;;10.70;65.33;100223.97;5003154;28;20053;-93
2022/10/10 06:38:45;;;;;;;19.88;5.88;;;;;;;11.16;64.75;100287.13;5031476;28;20045;-86
2022/10/10 06:41:11;;;;;;;14.10;4.90;;;;;;;11.31;65.22;100307.19;5038463;28;20124;-88
2022/10/10 06:43:38;;;;;;;12.07;5.40;;;;;;;11.32;65.13;100308.81;5018975;28;20199;-86
2022/10/10 06:46:05;;;;;;;17.30;5.82;;;;;;;11.35;64.85;100306.31;5019719;28;20048;-84
2022/10/10 06:48:34;;;;;;;19.65;5.75;;;;;;;11.27;65.71;100280.41;4999170;28;20129;-93
2022/10/10 06:51:02;;;;;;;21.85;6.03;;;;;;;11.47;65.24;100309.44;5038403;28;20041;-85
2022/10/10 06:53:34;;;;;;;24.67;6.57;;;;;;;11.42;65.57;100273.09;5035480;28;20049;-85
2022/10/10 06:56:01;;;;;;;21.67;6.40;;;;;;;11.39;63.94;100290.94;5019338;28;20056;-94
2022/10/10 06:58:28;;;;;;;25.13;5.70;;;;;;;11.19;64.31;100275.59;5036463;28;20513;-89
2022/10/10 07:01:06;;;;;;;22.38;6.15;;;;;;;11.22;64.84;100257.75;4989282;28;20046;-92
2022/10/10 07:03:53;;;;;;;20.42;5.22;;;;;;;11.61;63.57;100305.97;5000994;28;20534;-86
2022/10/10 07:06:19;;;;;;;13.93;5.72;;;;;;;11.57;63.34;100311.22;4939457;29;20071;-91
2022/10/10 07:11:21;;;;;;;16.77;5.47;;;;;;;11.55;62.91;100320.84;4932791;29;20138;-86
2022/10/10 07:13:51;;;;;;;20.75;5.57;;;;;;;11.51;62.80;100307.72;4938770;29;20094;-85
2022/10/10 07:16:17;;;;;;;17.30;5.00;;;;;;;11.18;62.63;100292.31;4938587;29;20071;-84
2022/10/10 07:18:43;;;;;;;10.70;4.60;;;;;;;11.23;62.18;100270.34;4907069;29;20055;-85
2022/10/10 07:21:12;;;;;;;19.90;4.90;;;;;;;11.61;61.03;100320.47;4906282;29;20067;-92
2022/10/10 07:23:39;;;;;;;16.00;4.50;;;;;;;11.43;61.34;100282.94;4928847;29;20480;-94
2022/10/10 07:26:09;;;;;;;15.77;5.47;;;;;;;11.59;60.30;100338.31;4908087;29;20140;-83
2022/10/10 07:28:36;;;;;;;9.63;4.25;;;;;;;11.57;60.03;100319.44;4930536;29;20089;-94
2022/10/10 07:31:33;;;;;;;;;;;;;;;11.56;59.53;100323.31;4927508;29;20078;-86
2022/10/10 07:33:59;;;;;;;16.05;3.70;;;;;;;11.37;59.53;100284.94;4906225;29;19982;-86
2022/10/10 07:36:26;;;;;;;19.13;4.70;;;;;;;11.38;59.32;100277.53;4922581;29;20574;-85
2022/10/10 07:39:25;;;;;;;6.68;3.60;;;;;;;11.49;58.88;100282.59;4914630;29;20060;-91
2022/10/10 07:41:51;;;;;;;11.43;4.07;;;;;;;11.40;58.82;100258.91;4898307;29;20056;-85
2022/10/10 07:44:18;;;;;;;14.30;4.97;;;;;;;11.76;58.91;100305.75;4952144;28;20047;-84
2022/10/10 07:46:44;;;;;;;;;;;;;;;11.90;59.27;100316.81;4921963;28;20091;-84
2022/10/10 07:49:10;;;;;;;14.45;4.22;;;;;;;11.94;58.79;100313.16;4958310;28;19998;-85
2022/10/10 07:51:38;;;;;;;25.08;5.47;;;;;;;12.04;60.27;100314.94;4964733;28;20098;-87
2022/10/10 07:54:05;;;;;;;16.20;4.63;;;;;;;11.76;58.80;100265.47;4973363;28;20050;-92
2022/10/10 07:56:31;;;;;;;18.47;5.60;;;;;;;12.04;58.42;100308.66;4954393;28;20065;-88
2022/10/10 07:59:06;;;;;;;19.03;5.90;;;;;;;12.02;58.82;100310.88;4922065;29;20083;-93
2022/10/10 08:01:32;;;;;;;21.35;6.47;;;;;;;12.14;59.22;100323.00;4942348;28;20043;-84
2022/10/10 08:03:58;;;;;;;14.83;5.90;;;;;;;12.09;58.32;100303.91;4938922;28;20050;-87
2022/10/10 08:06:26;;;;;;;19.75;4.90;;;;;;;12.16;57.84;100306.28;4969124;28;20058;-90
2022/10/10 08:08:52;;;;;;;36.50;5.95;;;;;;;12.23;57.58;100339.59;4944675;29;20075;-92
2022/10/10 08:11:21;;;;;;;20.27;6.18;;;;;;;12.18;57.59;100326.75;4942545;28;20043;-87
2022/10/10 08:13:49;;;;;;;26.95;5.45;;;;;;;12.22;57.37;100322.34;4924677;28;20138;-89
2022/10/10 08:16:15;;;;;;;34.42;4.65;;;;;;;12.17;57.01;100316.13;4925112;28;20044;-86
2022/10/10 08:18:41;;;;;;;16.63;5.60;;;;;;;12.36;56.41;100329.78;4961227;28;20430;-86
2022/10/10 08:21:11;;;;;;;17.67;4.78;;;;;;;12.16;56.12;100304.34;4994957;28;20365;-87
2022/10/10 08:23:38;;;;;;;29.40;5.25;;;;;;;12.21;55.14;100290.53;5024127;28;20677;-87
2022/10/10 08:26:07;;;;;;;22.52;4.45;;;;;;;12.23;54.55;100284.75;4983195;28;20450;-90
2022/10/10 08:28:34;;;;;;;27.10;4.53;;;;;;;12.58;56.03;100323.63;4998895;28;20041;-86
2022/10/10 08:31:11;;;;;;;18.35;4.40;;;;;;;12.27;53.36;100269.34;4969930;28;20046;-93
2022/10/10 08:33:38;;;;;;;24.77;4.72;;;;;;;12.71;54.91;100322.84;4986365;28;20039;-88
2022/10/10 08:36:08;;;;;;;17.05;4.93;;;;;;;12.77;55.27;100324.38;4998178;28;20078;-84
2022/10/10 08:38:35;;;;;;;18.75;4.63;;;;;;;12.82;54.14;100329.78;5014428;28;20554;-89
2022/10/10 08:41:24;;;;;;;26.67;3.85;;;;;;;12.36;53.23;100256.56;4965398;28;20133;-93
2022/10/10 08:43:56;;;;;;;20.35;4.70;;;;;;;12.66;53.62;100301.81;4991597;28;20045;-90
2022/10/10 08:46:37;;;;;;;21.25;4.68;;;;;;;12.52;53.06;100283.72;5008824;28;20100;-90
2022/10/10 08:49:22;;;;;;;19.80;4.57;;;;;;;12.45;54.03;100279.44;4983530;28;20078;-88
2022/10/10 08:51:57;;;;;;;25.83;5.32;;;;;;;12.67;55.79;100294.41;5007636;28;20057;-90
2022/10/10 08:54:30;;;;;;;13.95;3.50;;;;;;;12.80;52.47;100310.06;5006827;28;20064;-90
2022/10/10 08:59:57;;;;;;;12.38;3.20;;;;;;;12.77;50.74;100309.84;4986097;28;20145;-91
2022/10/10 09:02:48;;;;;;;11.07;3.35;;;;;;;12.56;51.91;100284.75;4974522;28;20057;-89
2022/10/10 09:06:00;;;;;;;14.30;3.42;;;;;;;12.66;50.83;100287.28;4945579;28;20038;-92
2022/10/10 09:09:10;;;;;;;17.15;3.67;;;;;;;13.03;51.19;100340.38;4904520;28;20040;-94
2022/10/10 09:11:58;;;;;;;9.32;2.35;;;;;;;13.10;48.22;100338.03;4980527;28;20039;-89
2022/10/10 09:14:39;;;;;;;18.65;2.38;;;;;;;12.87;45.59;100321.44;4958572;28;20046;-90
2022/10/10 09:17:37;;;;;;;19.23;3.10;;;;;;;13.08;45.75;100343.03;4993135;28;20034;-84
2022/10/10 09:20:35;;;;;;;21.70;3.22;;;;;;;13.11;46.87;100353.38;5000988;28;20523;-88
2022/10/10 09:23:39;;;;;;;20.77;2.95;;;;;;;13.10;45.52;100347.09;5002449;28;20053;-90
2022/10/10 09:29:53;;;;;;;13.88;2.65;;;;;;;12.91;45.65;100321.66;4988570;28;20534;-89
2022/10/10 09:33:16;;;;;;;22.08;3.40;;;;;;;13.09;46.66;100350.97;4981087;28;20176;-93
2022/10/10 09:35:46;;;;;;;23.00;3.10;;;;;;;13.22;48.11;100348.53;4974192;28;20037;-94
2022/10/10 09:38:49;;;;;;;18.98;3.38;;;;;;;13.23;48.63;100353.69;5001678;28;20447;-92
2022/10/10 09:41:43;;;;;;;15.30;3.63;;;;;;;13.31;48.62;100354.94;4999874;28;20052;-89
2022/10/10 09:44:14;;;;;;;7.50;2.90;;;;;;;13.36;48.35;100357.59;4983479;28;20037;-89
2022/10/10 09:47:11;;;;;;;13.07;2.97;;;;;;;13.37;48.68;100345.47;5001248;28;20111;-93
2022/10/10 09:49:55;;;;;;;12.07;3.20;;;;;;;12.92;47.97;100271.16;5003172;28;20044;-92
2022/10/10 09:52:46;;;;;;;9.07;2.80;;;;;;;13.37;46.10;100351.78;5000327;28;20519;-90
2022/10/10 09:55:36;;;;;;;10.70;3.38;;;;;;;13.34;45.09;100357.91;5000220;28;20050;-91
2022/10/10 09:58:50;;;;;;;10.10;2.63;;;;;;;13.16;46.17;100318.41;4999799;28;20045;-91
2022/10/10 10:01:32;;;;;;;9.18;2.90;;;;;;;13.46;45.36;100353.81;4951915;23;20400;-91
2022/10/10 10:04:30;;;;;;;13.43;2.75;;;;;;;13.51;45.25;100356.44;4979583;28;20237;-90
2022/10/10 10:10:23;;;;;;;9.93;3.20;;;;;;;13.40;45.57;100326.47;4924789;29;20051;-89
2022/10/10 10:12:53;;;;;;;9.20;2.70;;;;;;;13.66;43.71;100358.06;4914184;29;20043;-88
2022/10/10 10:15:28;;;;;;;11.30;2.97;;;;;;;13.02;43.89;100257.22;4922387;29;20040;-91
2022/10/10 10:18:16;;;;;;;5.32;2.45;;;;;;;13.67;44.50;100349.50;4923696;29;20039;-90
2022/10/10 10:20:45;;;;;;;7.43;2.75;;;;;;;13.72;44.64;100360.41;4908188;29;20058;-88
2022/10/10 10:23:48;;;;;;;11.93;2.83;;;;;;;13.45;45.17;100311.81;4905142;29;20114;-90
2022/10/10 10:26:30;;;;;;;;;;;;;;;;;;;;;
2022/10/10 10:29:55;;;;;;;11.85;3.22;;;;;;;13.13;45.71;100266.84;5002120;22;20187;-89
2022/10/10 10:32:39;;;;;;;6.78;2.90;;;;;;;13.63;45.19;100352.06;5020725;28;20037;-91
2022/10/10 10:35:40;;;;;;;5.22;2.63;;;;;;;13.01;44.76;100249.28;5000113;28;20082;-91
2022/10/10 10:44:46;;;;;;;11.73;3.45;;;;;;;13.92;45.10;100350.88;4996519;28;20128;-88
2022/10/10 10:47:37;;;;;;;10.57;3.10;;;;;;;13.93;44.59;100355.25;4999045;28;20409;-89
2022/10/10 10:50:23;;;;;;;8.60;3.42;;;;;;;14.04;45.60;100342.09;5021981;23;20140;-91
2022/10/10 10:53:26;;;;;;;10.23;3.28;;;;;;;14.10;45.50;100351.84;5003531;23;20053;-89
2022/10/10 10:56:05;;;;;;;8.50;3.30;;;;;;;13.89;45.49;100303.97;4953660;23;20050;31
2022/10/10 10:58:40;;;;;;;6.75;3.28;;;;;;;14.22;45.06;100348.53;4916277;29;20051;-88
2022/10/10 11:01:48;;;;;;;7.82;3.15;;;;;;;14.33;46.12;100344.41;4934348;29;20040;-89
2022/10/10 11:04:57;;;;;;;13.57;3.40;;;;;;;14.41;44.86;100342.88;4863168;29;20101;-88
2022/10/10 11:08:17;;;;;;;8.32;2.80;;;;;;;14.26;43.73;100353.09;4852079;29;20053;-87
2022/10/10 11:11:18;;;;;;;6.22;2.88;;;;;;;14.19;43.05;100355.47;4866158;29;20053;-90
2022/10/10 11:14:03;;;;;;;16.17;3.25;;;;;;;13.95;43.80;100300.78;4890587;29;20207;-90
2022/10/10 11:16:39;;;;;;;10.35;3.25;;;;;;;14.08;42.88;100321.09;4860629;29;20068;-90
2022/10/10 11:19:29;;;;;;;17.30;3.08;;;;;;;14.23;41.34;100347.41;4830144;29;20054;-89
2022/10/10 11:22:12;;;;;;;6.93;2.80;;;;;;;14.03;42.66;100333.03;4842551;29;20730;-89
2022/10/10 11:24:51;;;;;;;12.27;3.33;;;;;;;13.64;42.64;100245.72;4844352;29;20136;-88
2022/10/10 11:27:44;;;;;;;17.85;3.88;;;;;;;13.81;43.19;100256.88;4843788;29;20079;-90
2022/10/10 11:30:15;;;;;;;12.43;3.00;;;;;;;14.36;44.47;100337.47;4855387;29;20113;-87
2022/10/10 11:33:15;;;;;;;7.18;2.97;;;;;;;13.85;44.30;100263.34;4858958;29;20081;-89
2022/10/10 11:39:00;;;;;;;7.07;3.83;;;;;;;14.17;45.16;100313.75;4861243;29;20057;-87
2022/10/10 11:42:17;;;;;;;11.82;3.75;;;;;;;14.33;45.72;100345.22;4935956;23;20149;-91
2022/10/10 11:44:51;;;;;;;15.45;4.30;;;;;;;13.95;46.37;100278.00;4967820;28;20146;-88
2022/10/10 11:47:39;;;;;;;10.60;3.80;;;;;;;14.47;46.43;100345.19;4975699;28;20053;-87
2022/10/10 11:50:29;;;;;;;13.30;3.58;;;;;;;14.19;46.35;100310.66;4976015;28;20520;-87
2022/10/10 11:53:14;;;;;;;16.92;3.92;;;;;;;14.29;46.72;100355.22;4976465;28;20038;-88
2022/10/10 11:55:53;;;;;;;10.27;3.03;;;;;;;14.06;46.70;100323.34;4959537;28;20134;-91
2022/10/10 12:02:20;;;;;;;14.23;3.80;;;;;;;14.15;46.68;100323.44;4975557;28;20793;-89
2022/10/10 12:04:48;;;;;;;18.08;3.80;;;;;;;14.11;47.04;100315.00;4998112;23;20042;-86
2022/10/10 12:07:55;;;;;;;12.73;4.25;;;;;;;14.27;46.30;100356.66;5002564;28;20038;-92
2022/10/10 12:10:47;;;;;;;13.98;4.10;;;;;;;13.94;45.94;100310.16;4998223;28;20042;-91
2022/10/10 12:13:38;;;;;;;13.43;4.45;;;;;;;14.23;46.44;100350.97;5019906;28;20485;-91
2022/10/10 12:16:09;;;;;;;16.55;4.18;;;;;;;14.14;46.36;100330.88;5003328;28;20586;-90
2022/10/10 12:18:51;;;;;;;18.73;4.18;;;;;;;14.22;47.48;100349.34;4983595;28;20038;-90
2022/10/10 12:22:01;;;;;;;12.20;4.05;;;;;;;14.28;46.91;100347.31;4985778;28;20070;-88
2022/10/10 12:24:41;;;;;;;16.88;3.92;;;;;;;14.09;47.68;100361.22;5018927;23;20080;-87
2022/10/10 12:27:56;;;;;;;12.27;3.65;;;;;;;14.13;47.30;100353.97;4951599;28;20054;-89
2022/10/10 12:30:24;;;;;;;8.65;3.33;;;;;;;14.03;47.25;100341.28;4953239;28;20045;-89
2022/10/10 12:33:18;;;;;;;11.57;3.63;;;;;;;13.85;46.96;100314.78;4957960;28;20043;-90
2022/10/10 12:35:44;;;;;;;13.02;4.05;;;;;;;13.92;47.43;100328.91;4923352;29;20134;-88
2022/10/10 12:38:28;;;;;;;15.07;4.20;;;;;;;13.97;47.65;100358.19;4947811;28;20039;-86
2022/10/10 12:41:09;;;;;;;17.58;3.78;;;;;;;13.90;47.98;100363.31;4919081;29;20087;-85
2022/10/10 12:43:41;;;;;;;9.70;3.40;;;;;;;14.06;48.43;100353.59;4935531;28;20097;-85
2022/10/10 12:46:19;;;;;;;8.77;3.42;;;;;;;14.10;47.78;100343.59;4971465;28;20421;-85
2022/10/10 12:49:22;;;;;;;16.20;3.45;;;;;;;14.12;46.81;100359.78;4973531;28;20101;-87
2022/10/10 12:52:09;;;;;;;25.70;4.60;;;;;;;13.64;47.58;100278.69;4988164;28;20046;-88
2022/10/10 12:54:42;;;;;;;21.65;3.60;;;;;;;14.15;45.71;100361.94;4961093;28;20577;-83
2022/10/10 12:57:17;;;;;;;16.17;3.67;;;;;;;13.90;45.39;100322.06;4970788;28;20064;-84
2022/10/10 12:59:44;;;;;;;9.10;3.58;;;;;;;13.50;45.48;100295.22;4990771;28;20061;-88
2022/10/10 13:02:33;;;;;;;16.75;3.88;;;;;;;13.62;45.98;100341.41;4990300;28;20065;-88
2022/10/10 13:05:01;;;;;;;10.88;3.50;;;;;;;13.49;46.12;100317.50;4958528;28;20078;-90
2022/10/10 13:07:29;;;;;;;15.55;3.85;;;;;;;13.64;45.79;100347.38;4956084;28;20062;-85
2022/10/10 13:10:06;;;;;;;16.40;3.70;;;;;;;13.74;46.58;100365.56;4955312;28;20049;-84
2022/10/10 13:12:33;;;;;;;24.13;3.70;;;;;;;13.68;44.94;100351.16;4990981;28;20053;-86
2022/10/10 13:14:59;;;;;;;11.00;3.08;;;;;;;13.37;45.39;100302.34;4949252;28;20055;-85
2022/10/10 13:17:45;;;;;;;;;;;;;;;13.70;47.04;100362.63;4998604;28;20082;-84